createdAt,value
2023-04-19T00:01:31.042Z,13.70
2023-04-19T00:03:58.504Z,13.90
2023-04-19T00:06:26.127Z,14.37
2023-04-19T00:08:53.162Z,14.00
2023-04-19T00:11:20.383Z,13.77
2023-04-19T00:13:47.450Z,14.27
2023-04-19T00:16:14.477Z,14.07
2023-04-19T00:18:41.769Z,15.20
2023-04-19T00:21:08.770Z,14.23
2023-04-19T00:23:35.886Z,13.10
2023-04-19T00:26:04.053Z,14.33
2023-04-19T00:28:31.276Z,14.17
2023-04-19T00:30:58.549Z,15.40
2023-04-19T00:33:25.713Z,14.73
2023-04-19T00:35:52.730Z,14.50
2023-04-19T00:38:19.720Z,14.07
2023-04-19T00:40:47.408Z,14.90
2023-04-19T00:43:18.526Z,14.60
2023-04-19T00:45:45.931Z,14.73
2023-04-19T00:48:14.072Z,14.73
2023-04-19T00:50:41.490Z,14.33
2023-04-19T00:53:08.886Z,15.67
2023-04-19T00:55:36.214Z,13.70
2023-04-19T00:58:03.208Z,14.70
2023-04-19T01:00:30.221Z,14.80
2023-04-19T01:02:57.360Z,14.27
2023-04-19T01:05:24.538Z,14.33
2023-04-19T01:07:51.635Z,14.60
2023-04-19T01:10:18.791Z,14.60
2023-04-19T01:12:45.887Z,15.13
2023-04-19T01:15:12.963Z,15.37
2023-04-19T01:17:40.275Z,14.63
2023-04-19T01:20:07.971Z,15.47
2023-04-19T01:22:38.178Z,14.60
2023-04-19T01:25:05.466Z,15.03
2023-04-19T01:27:32.513Z,15.50
2023-04-19T01:29:59.483Z,15.07
2023-04-19T01:32:26.789Z,14.00
2023-04-19T01:34:53.782Z,14.87
2023-04-19T01:37:20.729Z,14.93
2023-04-19T01:39:47.692Z,16.23
2023-04-19T01:42:14.695Z,15.43
2023-04-19T01:44:41.726Z,15.33
2023-04-19T01:47:08.782Z,15.47
2023-04-19T01:49:35.928Z,15.70
2023-04-19T01:52:02.999Z,15.07
2023-04-19T01:54:30.176Z,15.13
2023-04-19T01:56:57.183Z,15.17
2023-04-19T01:59:24.153Z,15.67
2023-04-19T02:01:51.253Z,15.60
2023-04-19T02:04:21.303Z,15.73
2023-04-19T02:06:48.436Z,16.27
2023-04-19T02:09:15.430Z,14.80
2023-04-19T02:11:42.428Z,14.77
2023-04-19T02:14:09.388Z,15.37
2023-04-19T02:16:36.587Z,16.27
2023-04-19T02:19:04.330Z,13.93
2023-04-19T02:21:31.893Z,15.20
2023-04-19T02:23:58.856Z,15.63
2023-04-19T02:26:26.067Z,15.50
2023-04-19T02:28:53.145Z,15.17
2023-04-19T02:31:20.314Z,15.50
2023-04-19T02:33:47.403Z,14.60
2023-04-19T02:36:14.565Z,14.93
2023-04-19T02:38:41.564Z,15.73
2023-04-19T02:41:08.556Z,14.63
2023-04-19T02:43:35.580Z,16.27
2023-04-19T02:46:03.108Z,16.13
2023-04-19T02:48:30.408Z,15.50
2023-04-19T02:50:57.429Z,16.80
2023-04-19T02:53:24.412Z,15.30
2023-04-19T02:55:51.389Z,16.53
2023-04-19T02:58:18.724Z,15.73
2023-04-19T03:00:45.720Z,16.50
2023-04-19T03:03:12.796Z,16.70
2023-04-19T03:05:39.860Z,17.70
2023-04-19T03:08:06.900Z,16.43
2023-04-19T03:10:33.917Z,16.87
2023-04-19T03:13:00.904Z,16.77
2023-04-19T03:15:27.935Z,16.13
2023-04-19T03:17:54.950Z,16.57
2023-04-19T03:20:21.996Z,16.57
2023-04-19T03:22:49.368Z,15.60
2023-04-19T03:25:17.523Z,16.47
2023-04-19T03:27:45.478Z,17.20
2023-04-19T03:30:13.102Z,19.98
2023-04-19T03:32:40.164Z,18.67
2023-04-19T03:35:07.330Z,16.73
2023-04-19T03:37:34.289Z,17.93
2023-04-19T03:40:01.280Z,17.43
2023-04-19T03:42:29.194Z,17.00
2023-04-19T03:44:56.386Z,17.10
2023-04-19T03:47:23.392Z,16.93
2023-04-19T03:49:50.576Z,16.83
2023-04-19T03:52:17.572Z,17.80
2023-04-19T03:54:44.628Z,17.73
2023-04-19T03:57:15.147Z,17.37
2023-04-19T03:59:42.160Z,17.93
2023-04-19T04:02:09.273Z,18.23
2023-04-19T04:04:36.535Z,20.88
2023-04-19T04:07:03.613Z,17.93
2023-04-19T04:09:30.843Z,17.87
2023-04-19T04:11:57.812Z,17.83
2023-04-19T04:14:24.963Z,20.38
2023-04-19T04:16:52.091Z,18.50
2023-04-19T04:19:21.718Z,17.07
2023-04-19T04:21:49.234Z,16.87
2023-04-19T04:24:17.779Z,17.30
2023-04-19T04:26:44.776Z,18.03
2023-04-19T04:29:11.839Z,18.63
2023-04-19T04:31:38.954Z,16.37
2023-04-19T04:34:06.368Z,18.43
2023-04-19T04:36:33.424Z,17.20
2023-04-19T04:39:01.869Z,16.57
2023-04-19T04:41:31.499Z,17.80
2023-04-19T04:44:12.103Z,20.27
2023-04-19T04:46:40.147Z,18.13
2023-04-19T04:49:07.343Z,19.52
2023-04-19T04:51:36.117Z,17.50
2023-04-19T04:54:03.275Z,17.47
2023-04-19T04:56:30.883Z,16.87
2023-04-19T04:58:57.958Z,15.40
2023-04-19T05:01:25.156Z,17.37
2023-04-19T05:03:52.192Z,16.93
2023-04-19T05:06:19.246Z,16.63
2023-04-19T05:08:46.201Z,17.57
2023-04-19T05:11:13.287Z,17.00
2023-04-19T05:13:40.249Z,17.90
2023-04-19T05:16:07.349Z,15.93
2023-04-19T05:18:34.374Z,17.23
2023-04-19T05:21:01.407Z,16.67
2023-04-19T05:23:28.418Z,17.97
2023-04-19T05:25:55.527Z,15.70
2023-04-19T05:28:22.518Z,18.45
2023-04-19T05:30:49.514Z,16.67
2023-04-19T05:33:16.552Z,17.23
2023-04-19T05:35:43.581Z,16.93
2023-04-19T05:38:10.534Z,15.83
2023-04-19T05:40:37.536Z,16.43
2023-04-19T05:43:04.519Z,14.87
2023-04-19T05:45:31.535Z,16.30
2023-04-19T05:47:58.571Z,15.50
2023-04-19T05:50:25.700Z,15.80
2023-04-19T05:52:52.723Z,15.93
2023-04-19T05:55:19.744Z,14.77
2023-04-19T05:57:46.792Z,14.97
2023-04-19T06:00:14.010Z,15.70
2023-04-19T06:02:41.279Z,17.92
2023-04-19T06:05:10.856Z,15.70
2023-04-19T06:07:43.103Z,14.83
2023-04-19T06:10:14.157Z,14.90
2023-04-19T06:12:41.151Z,14.97
2023-04-19T06:15:08.603Z,14.97
2023-04-19T06:17:35.762Z,15.00
2023-04-19T06:20:05.880Z,15.17
2023-04-19T06:22:32.876Z,14.27
2023-04-19T06:24:59.896Z,14.23
2023-04-19T06:27:27.255Z,15.43
2023-04-19T06:29:54.293Z,14.83
2023-04-19T06:32:21.349Z,13.80
2023-04-19T06:34:48.392Z,14.10
2023-04-19T06:37:15.404Z,14.00
2023-04-19T06:39:42.373Z,15.20
2023-04-19T06:42:09.502Z,15.77
2023-04-19T06:44:36.769Z,14.83
2023-04-19T06:47:03.940Z,14.80
2023-04-19T06:49:30.885Z,13.50
2023-04-19T06:51:58.924Z,13.67
2023-04-19T06:54:25.887Z,14.20
2023-04-19T06:56:52.908Z,13.97
2023-04-19T06:59:20.950Z,13.53
2023-04-19T07:01:48.625Z,14.10
2023-04-19T07:04:16.663Z,14.00
2023-04-19T07:06:44.076Z,14.23
2023-04-19T07:09:11.103Z,14.27
2023-04-19T07:11:38.108Z,14.20
2023-04-19T07:14:05.087Z,12.97
2023-04-19T07:16:32.281Z,15.25
2023-04-19T07:18:59.389Z,13.57
2023-04-19T07:21:30.267Z,13.47
2023-04-19T07:23:57.300Z,14.13
2023-04-19T07:26:24.308Z,13.27
2023-04-19T07:28:51.354Z,13.00
2023-04-19T07:31:19.191Z,13.73
2023-04-19T07:33:46.303Z,13.60
2023-04-19T07:36:13.404Z,12.43
2023-04-19T07:38:40.451Z,12.90
2023-04-19T07:41:07.854Z,12.33
2023-04-19T07:43:34.923Z,11.87
2023-04-19T07:46:02.178Z,12.10
2023-04-19T07:48:29.234Z,13.07
2023-04-19T07:50:56.199Z,12.20
2023-04-19T07:53:23.185Z,11.57
2023-04-19T07:55:50.253Z,11.77
2023-04-19T07:58:17.253Z,11.13
2023-04-19T08:00:44.273Z,10.90
2023-04-19T08:03:11.598Z,11.97
2023-04-19T08:05:38.953Z,11.23
2023-04-19T08:08:06.105Z,10.80
2023-04-19T08:10:33.353Z,10.03
2023-04-19T08:13:05.133Z,10.10
2023-04-19T08:16:03.563Z,9.33
2023-04-19T08:18:21.542Z,9.40
2023-04-19T08:20:48.908Z,9.97
2023-04-19T08:23:24.172Z,9.90
2023-04-19T08:25:52.954Z,10.50
2023-04-19T08:28:20.101Z,10.20
2023-04-19T08:30:47.168Z,11.18
2023-04-19T08:33:14.180Z,10.17
2023-04-19T08:35:41.818Z,10.03
2023-04-19T08:38:09.413Z,10.20
2023-04-19T08:40:39.339Z,10.13
2023-04-19T08:43:07.384Z,10.50
2023-04-19T08:45:35.158Z,11.03
2023-04-19T08:48:03.981Z,10.30
2023-04-19T08:50:35.798Z,11.03
2023-04-19T08:53:24.205Z,11.53
2023-04-19T08:56:08.661Z,11.80
2023-04-19T08:58:57.771Z,11.87
2023-04-19T09:04:10.245Z,12.00
2023-04-19T09:06:46.538Z,12.17
2023-04-19T09:11:52.797Z,12.53
2023-04-19T09:14:21.524Z,12.87
2023-04-19T09:16:48.901Z,12.00
2023-04-19T09:19:24.226Z,12.73
2023-04-19T09:21:53.913Z,11.77
2023-04-19T09:25:04.468Z,12.53
2023-04-19T09:27:32.503Z,11.57
2023-04-19T09:30:03.953Z,12.40
2023-04-19T09:32:46.194Z,12.57
2023-04-19T09:35:13.300Z,12.17
2023-04-19T09:38:02.092Z,11.83
2023-04-19T09:40:28.636Z,12.13
2023-04-19T09:43:08.901Z,11.70
2023-04-19T09:45:43.704Z,11.10
2023-04-19T09:48:11.294Z,10.87
2023-04-19T09:50:57.379Z,10.67
2023-04-19T09:53:30.129Z,10.23
2023-04-19T09:56:01.940Z,10.70
2023-04-19T09:58:41.702Z,10.60
2023-04-19T10:01:16.367Z,10.00
2023-04-19T10:03:46.366Z,10.00
2023-04-19T10:08:47.972Z,8.87
2023-04-19T10:11:15.066Z,9.07
2023-04-19T10:13:42.287Z,9.37
2023-04-19T10:16:18.964Z,9.20
2023-04-19T10:18:46.970Z,9.87
2023-04-19T10:21:14.205Z,9.33
2023-04-19T10:23:41.206Z,10.77
2023-04-19T10:26:08.235Z,9.93
2023-04-19T10:28:37.814Z,9.77
2023-04-19T10:31:05.423Z,10.10
2023-04-19T10:33:36.457Z,9.97
2023-04-19T10:36:03.773Z,10.00
2023-04-19T10:38:37.185Z,9.80
2023-04-19T10:41:05.285Z,9.47
2023-04-19T10:43:34.178Z,9.83
2023-04-19T10:46:02.721Z,10.63
2023-04-19T10:48:30.824Z,9.73
2023-04-19T10:50:58.648Z,10.03
2023-04-19T10:53:44.521Z,11.00
2023-04-19T10:56:11.537Z,10.20
2023-04-19T10:58:57.147Z,11.13
2023-04-19T11:01:38.069Z,9.93
2023-04-19T11:04:05.265Z,10.40
2023-04-19T11:06:33.537Z,9.27
2023-04-19T11:09:02.662Z,9.50
2023-04-19T11:11:29.740Z,9.13
2023-04-19T11:13:57.810Z,9.53
2023-04-19T11:16:37.922Z,8.87
2023-04-19T11:19:15.864Z,9.33
2023-04-19T11:21:42.984Z,8.97
2023-04-19T11:24:10.228Z,9.90
2023-04-19T11:26:37.299Z,10.93
2023-04-19T11:29:06.106Z,10.67
2023-04-19T11:31:33.634Z,11.83
2023-04-19T11:34:01.041Z,12.53
2023-04-19T11:36:28.281Z,12.40
2023-04-19T11:38:55.611Z,11.57
2023-04-19T11:41:22.605Z,12.53
2023-04-19T11:43:49.736Z,13.83
2023-04-19T11:46:16.891Z,14.77
2023-04-19T11:48:53.698Z,14.27
2023-04-19T11:51:21.080Z,14.97
2023-04-19T11:53:48.219Z,15.87
2023-04-19T11:56:16.684Z,16.20
2023-04-19T11:58:45.329Z,16.60
2023-04-19T12:01:13.404Z,18.20
2023-04-19T12:03:42.874Z,18.60
2023-04-19T12:06:12.376Z,18.50
2023-04-19T12:08:40.777Z,19.63
2023-04-19T12:11:07.800Z,19.67
2023-04-19T12:13:36.249Z,18.33
2023-04-19T12:16:03.544Z,18.97
2023-04-19T12:18:44.357Z,20.33
2023-04-19T12:21:13.096Z,19.67
2023-04-19T12:23:40.145Z,20.90
2023-04-19T12:26:07.435Z,20.60
2023-04-19T12:28:34.466Z,20.03
2023-04-19T12:31:01.613Z,19.60
2023-04-19T12:33:28.667Z,19.77
2023-04-19T12:35:55.652Z,19.37
2023-04-19T12:38:22.628Z,19.60
2023-04-19T12:40:49.614Z,19.40
2023-04-19T12:43:16.596Z,19.63
2023-04-19T12:45:43.630Z,19.60
2023-04-19T12:48:10.775Z,19.97
2023-04-19T12:50:37.770Z,18.55
2023-04-19T12:53:06.605Z,18.03
2023-04-19T12:55:33.549Z,18.47
2023-04-19T12:58:00.927Z,17.10
2023-04-19T13:00:28.091Z,17.30
2023-04-19T13:02:55.380Z,16.80
2023-04-19T13:05:22.529Z,16.43
2023-04-19T13:07:49.548Z,16.73
2023-04-19T13:10:16.593Z,16.07
2023-04-19T13:12:43.791Z,15.93
2023-04-19T13:15:11.167Z,16.07
2023-04-19T13:17:38.276Z,16.20
2023-04-19T13:20:06.394Z,17.10
2023-04-19T13:22:33.568Z,16.27
2023-04-19T13:25:00.568Z,15.77
2023-04-19T13:27:27.855Z,17.37
2023-04-19T13:29:55.881Z,15.93
2023-04-19T13:32:23.138Z,14.37
2023-04-19T13:34:50.148Z,14.50
2023-04-19T13:37:17.209Z,14.13
2023-04-19T13:39:44.202Z,14.77
2023-04-19T13:42:11.240Z,14.30
2023-04-19T13:44:38.256Z,14.60
2023-04-19T13:47:05.322Z,14.00
2023-04-19T13:49:32.299Z,14.53
2023-04-19T13:51:59.286Z,14.00
2023-04-19T13:54:26.381Z,12.90
2023-04-19T13:56:53.381Z,14.00
2023-04-19T13:59:21.124Z,13.77
2023-04-19T14:01:48.180Z,13.17
2023-04-19T14:04:15.640Z,12.67
2023-04-19T14:06:43.304Z,12.00
2023-04-19T14:09:10.346Z,12.43
2023-04-19T14:11:38.252Z,12.73
2023-04-19T14:14:05.255Z,11.57
2023-04-19T14:16:32.282Z,11.63
2023-04-19T14:18:59.713Z,11.60
2023-04-19T14:21:27.589Z,10.30
2023-04-19T14:23:54.720Z,10.77
2023-04-19T14:26:21.727Z,11.53
2023-04-19T14:28:48.830Z,9.90
2023-04-19T14:31:15.783Z,10.00
2023-04-19T14:33:42.756Z,9.40
2023-04-19T14:36:09.797Z,9.83
2023-04-19T14:38:36.762Z,9.80
2023-04-19T14:41:03.872Z,10.47
2023-04-19T14:43:30.997Z,10.80
2023-04-19T14:45:58.041Z,10.60
2023-04-19T14:48:25.628Z,10.13
2023-04-19T14:50:52.642Z,10.90
2023-04-19T14:53:19.669Z,10.03
2023-04-19T14:55:46.618Z,10.73
2023-04-19T14:58:13.612Z,9.93
2023-04-19T15:00:40.935Z,10.10
2023-04-19T15:03:08.167Z,10.90
2023-04-19T15:05:36.555Z,11.27
2023-04-19T15:08:03.717Z,9.53
2023-04-19T15:10:30.740Z,9.57
2023-04-19T15:12:58.048Z,9.90
2023-04-19T15:15:25.039Z,9.83
2023-04-19T15:17:52.476Z,10.50
2023-04-19T15:20:19.547Z,11.40
2023-04-19T15:22:46.619Z,9.13
2023-04-19T15:25:13.669Z,10.17
2023-04-19T15:27:41.139Z,9.87
2023-04-19T15:30:08.449Z,10.87
2023-04-19T15:32:38.218Z,9.87
2023-04-19T15:35:05.415Z,10.03
2023-04-19T15:37:32.672Z,10.17
2023-04-19T15:39:59.660Z,9.73
2023-04-19T15:42:26.635Z,10.67
2023-04-19T15:44:53.630Z,9.90
2023-04-19T15:47:20.686Z,9.13
2023-04-19T15:49:47.998Z,9.33
2023-04-19T15:52:15.083Z,11.13
2023-04-19T15:54:42.026Z,8.93
2023-04-19T15:57:09.010Z,10.17
2023-04-19T15:59:36.041Z,10.00
2023-04-19T16:02:03.126Z,9.67
2023-04-19T16:04:31.330Z,9.20
2023-04-19T16:06:58.547Z,9.80
2023-04-19T16:09:26.308Z,9.80
2023-04-19T16:11:53.337Z,9.73
2023-04-19T16:14:20.329Z,9.10
2023-04-19T16:16:47.326Z,9.03
2023-04-19T16:19:15.259Z,9.13
2023-04-19T16:21:42.437Z,8.07
2023-04-19T16:24:09.430Z,9.27
2023-04-19T16:26:36.400Z,8.37
2023-04-19T16:29:03.397Z,8.27
2023-04-19T16:31:30.656Z,9.20
2023-04-19T16:33:57.751Z,9.27
2023-04-19T16:36:24.972Z,8.77
2023-04-19T16:38:52.063Z,8.90
2023-04-19T16:41:19.069Z,8.37
2023-04-19T16:43:46.066Z,7.87
2023-04-19T16:46:13.122Z,8.23
2023-04-19T16:48:40.132Z,8.13
2023-04-19T16:51:07.165Z,8.60
2023-04-19T16:53:34.189Z,7.70
2023-04-19T16:56:03.400Z,6.13
2023-04-19T16:58:31.232Z,7.97
2023-04-19T17:00:58.437Z,3.47
2023-04-19T17:03:25.719Z,2.40
2023-04-19T17:05:52.862Z,2.27
2023-04-19T17:08:21.630Z,4.03
2023-04-19T17:10:48.726Z,7.07
2023-04-19T17:13:15.809Z,8.73
2023-04-19T17:15:42.956Z,6.70
2023-04-19T17:18:10.041Z,4.87
2023-04-19T17:20:37.140Z,2.27
2023-04-19T17:23:04.101Z,2.13
2023-04-19T17:25:31.186Z,1.70
2023-04-19T17:27:58.151Z,1.80
2023-04-19T17:30:25.165Z,1.70
2023-04-19T17:32:52.431Z,2.07
2023-04-19T17:35:19.587Z,2.03
2023-04-19T17:37:46.627Z,1.97
2023-04-19T17:40:13.657Z,1.80
2023-04-19T17:42:40.698Z,2.20
2023-04-19T17:45:10.946Z,2.13
2023-04-19T17:47:40.985Z,1.87
2023-04-19T17:50:08.992Z,1.97
2023-04-19T17:52:36.040Z,2.07
2023-04-19T17:55:04.516Z,2.00
2023-04-19T17:57:33.687Z,2.00
2023-04-19T18:00:01.379Z,2.80
2023-04-19T18:02:28.571Z,2.40
2023-04-19T18:04:56.685Z,3.37
2023-04-19T18:07:23.860Z,2.43
2023-04-19T18:09:50.858Z,2.13
2023-04-19T18:12:17.863Z,3.53
2023-04-19T18:14:44.920Z,2.90
2023-04-19T18:17:12.011Z,2.80
2023-04-19T18:19:39.063Z,2.97
2023-04-19T18:22:06.248Z,3.00
2023-04-19T18:24:33.304Z,2.33
2023-04-19T18:27:01.736Z,2.40
2023-04-19T18:29:28.732Z,2.20
2023-04-19T18:31:55.866Z,2.70
2023-04-19T18:34:22.933Z,2.50
2023-04-19T18:36:49.940Z,2.20
2023-04-19T18:39:18.738Z,2.30
2023-04-19T18:41:45.952Z,2.47
2023-04-19T18:44:38.989Z,2.30
2023-04-19T18:46:59.947Z,2.50
2023-04-19T18:49:26.913Z,2.30
2023-04-19T18:51:53.925Z,2.63
2023-04-19T18:54:21.028Z,2.83
2023-04-19T18:57:18.981Z,2.60
2023-04-19T18:59:35.156Z,2.57
2023-04-19T19:02:02.361Z,2.80
2023-04-19T19:04:48.197Z,2.60
2023-04-19T19:07:34.425Z,2.77
2023-04-19T19:10:06.349Z,2.70
2023-04-19T19:12:43.937Z,3.03
2023-04-19T19:15:11.191Z,2.50
2023-04-19T19:17:38.474Z,2.77
2023-04-19T19:20:06.793Z,2.93
2023-04-19T19:22:34.156Z,2.53
2023-04-19T19:25:01.432Z,2.87
2023-04-19T19:27:28.545Z,2.70
2023-04-19T19:29:55.731Z,2.97
2023-04-19T19:32:22.780Z,2.80
2023-04-19T19:37:20.622Z,2.90
2023-04-19T19:39:47.773Z,2.60
2023-04-19T19:42:17.771Z,3.10
2023-04-19T19:44:45.148Z,3.20
2023-04-19T19:47:13.041Z,2.90
2023-04-19T19:50:01.952Z,3.00
2023-04-19T19:52:31.791Z,3.30
2023-04-19T19:54:59.272Z,4.80
2023-04-19T19:58:03.264Z,3.67
2023-04-19T20:05:19.128Z,4.63
2023-04-19T20:08:00.960Z,11.77
2023-04-19T20:10:29.162Z,3.53
2023-04-19T20:12:57.153Z,3.00
2023-04-19T20:15:24.432Z,3.00
2023-04-19T20:17:51.464Z,32.70
2023-04-19T20:20:18.579Z,21.17
2023-04-19T20:22:46.799Z,6.37
2023-04-19T20:25:13.935Z,2.70
2023-04-19T20:27:41.076Z,6.47
2023-04-19T20:30:09.160Z,3.40
2023-04-19T20:32:36.541Z,3.90
2023-04-19T20:35:08.312Z,4.80
2023-04-19T20:37:41.958Z,3.67
2023-04-19T20:40:13.514Z,5.57
2023-04-19T20:42:40.984Z,3.50
2023-04-19T20:45:09.885Z,5.43
2023-04-19T20:47:40.060Z,4.53
2023-04-19T20:50:07.814Z,3.53
2023-04-19T20:52:35.141Z,7.00
2023-04-19T20:55:02.209Z,3.30
2023-04-19T20:57:29.221Z,3.60
2023-04-19T20:59:56.273Z,3.00
2023-04-19T21:02:23.363Z,2.90
2023-04-19T21:04:50.494Z,3.20
2023-04-19T21:07:17.534Z,3.30
2023-04-19T21:09:44.532Z,2.77
2023-04-19T21:12:11.782Z,3.30
2023-04-19T21:14:38.777Z,3.40
2023-04-19T21:17:05.946Z,3.90
2023-04-19T21:19:32.903Z,2.90
2023-04-19T21:21:59.848Z,4.07
2023-04-19T21:24:26.910Z,3.80
2023-04-19T21:26:53.918Z,3.23
2023-04-19T21:29:21.116Z,3.30
2023-04-19T21:31:48.373Z,3.20
2023-04-19T21:34:15.359Z,6.97
2023-04-19T21:36:42.547Z,7.03
2023-04-19T21:39:10.162Z,3.20
2023-04-19T21:41:38.156Z,3.00
2023-04-19T21:44:05.279Z,3.00
2023-04-19T21:46:33.269Z,2.83
2023-04-19T21:49:00.375Z,3.23
2023-04-19T21:51:28.345Z,3.20
2023-04-19T21:53:55.494Z,3.33
2023-04-19T21:56:22.495Z,18.33
2023-04-19T21:58:49.497Z,35.40
2023-04-19T22:03:45.612Z,6.47
2023-04-19T22:06:13.824Z,3.30
2023-04-19T22:08:42.326Z,4.30
2023-04-19T22:11:09.287Z,6.60
2023-04-19T22:13:37.297Z,5.37
2023-04-19T22:16:04.349Z,3.50
2023-04-19T22:18:34.113Z,3.80
2023-04-19T22:21:01.138Z,3.40
2023-04-19T22:23:28.121Z,3.87
2023-04-19T22:25:55.267Z,4.53
2023-04-19T22:28:22.239Z,4.93
2023-04-19T22:30:49.773Z,3.70
2023-04-19T22:33:16.851Z,3.60
2023-04-19T22:35:43.879Z,5.07
2023-04-19T22:38:10.986Z,4.40
2023-04-19T22:40:38.021Z,5.73
2023-04-19T22:43:04.980Z,4.43
2023-04-19T22:45:31.926Z,3.67
2023-04-19T22:47:58.994Z,3.83
2023-04-19T22:50:26.114Z,4.30
2023-04-19T22:52:53.124Z,4.00
2023-04-19T22:55:20.167Z,3.63
2023-04-19T22:57:47.167Z,3.93
2023-04-19T23:00:14.771Z,3.60
2023-04-19T23:02:41.881Z,3.77
2023-04-19T23:05:09.158Z,3.30
2023-04-19T23:07:36.246Z,3.97
2023-04-19T23:10:03.554Z,3.87
2023-04-19T23:12:31.020Z,3.93
2023-04-19T23:14:58.266Z,4.00
2023-04-19T23:17:26.215Z,4.53
2023-04-19T23:19:53.302Z,4.10
2023-04-19T23:22:20.379Z,3.77
2023-04-19T23:24:47.362Z,4.40
2023-04-19T23:27:14.382Z,4.73
2023-04-19T23:29:41.459Z,4.30
2023-04-19T23:32:08.490Z,4.33
2023-04-19T23:34:35.485Z,4.20
2023-04-19T23:37:02.455Z,4.40
2023-04-19T23:39:29.464Z,4.00
2023-04-19T23:41:56.468Z,4.43
2023-04-19T23:44:23.487Z,4.60
2023-04-19T23:46:50.587Z,4.47
2023-04-19T23:49:17.835Z,4.37
2023-04-19T23:51:45.138Z,4.90
2023-04-19T23:54:12.199Z,4.70
2023-04-19T23:56:39.198Z,5.20
2023-04-19T23:59:07.024Z,5.00
